Time;durP1;ratioP1;P1;durP2;ratioP2;P2;SDS_P1;SDS_P2;PMS_P1;PMS_P2;Temp;Humidity;BMP_temperature;BMP_pressure;BME280_temperature;BME280_humidity;BME280_pressure;Samples;Min_cycle;Max_cycle;Signal;HPM_P1;HPM_P2
2022/07/05 00:00:58;;;;;;;3.67;1.30;;;;;;;22.57;48.17;99064.72;6069660;23;20188;-85
2022/07/05 00:03:24;;;;;;;5.17;1.37;;;;;;;22.59;48.15;99072.56;6068431;23;20149;-85
2022/07/05 00:05:50;;;;;;;2.80;1.03;;;;;;;22.65;47.76;99069.31;6068348;23;20157;-85
2022/07/05 00:08:15;;;;;;;2.83;1.33;;;;;;;22.57;48.07;99070.06;6069508;23;20163;-85
2022/07/05 00:10:41;;;;;;;3.70;1.67;;;;;;;22.47;48.55;99056.00;6069420;23;20308;-85
2022/07/05 00:13:07;;;;;;;2.93;1.43;;;;;;;22.48;48.42;99059.50;6068303;23;20153;-85
2022/07/05 00:15:33;;;;;;;3.27;1.60;;;;;;;22.44;48.98;99058.13;6069493;23;20224;-85
2022/07/05 00:17:58;;;;;;;5.37;1.43;;;;;;;22.36;50.15;99058.06;6069407;23;20163;-85
2022/07/05 00:20:24;;;;;;;2.83;1.40;;;;;;;22.37;49.82;99065.94;6068351;23;20161;-85
2022/07/05 00:22:50;;;;;;;4.17;1.80;;;;;;;22.45;50.09;99066.00;6069481;23;20541;-85
2022/07/05 00:25:16;;;;;;;5.47;1.60;;;;;;;22.39;50.33;99050.59;6069410;23;20529;-85
2022/07/05 00:27:41;;;;;;;2.90;1.87;;;;;;;22.32;50.50;99046.88;6069251;23;20496;-85
2022/07/05 00:30:08;;;;;;;3.50;1.63;;;;;;;22.25;50.53;99047.69;6068096;23;20244;-85
2022/07/05 00:32:33;;;;;;;2.83;1.43;;;;;;;22.09;51.42;99048.34;6069643;23;20160;-85
2022/07/05 00:34:59;;;;;;;8.40;1.60;;;;;;;22.00;51.48;99038.63;6068983;23;20181;-85
2022/07/05 00:37:25;;;;;;;4.40;1.63;;;;;;;21.95;52.08;99036.44;6069915;23;20630;-85
2022/07/05 00:39:51;;;;;;;3.47;1.70;;;;;;;21.85;52.27;99040.16;6069223;23;20648;-85
2022/07/05 00:42:16;;;;;;;3.00;1.47;;;;;;;21.71;52.46;99033.53;6069563;23;20228;-85
2022/07/05 00:44:42;;;;;;;5.83;1.43;;;;;;;21.66;52.06;99037.63;6068097;23;20597;-85
2022/07/05 00:47:10;;;;;;;3.10;1.30;;;;;;;21.70;51.59;99030.97;6067976;23;20157;-85
2022/07/05 00:49:36;;;;;;;4.10;1.73;;;;;;;21.63;52.26;99025.44;6069210;23;20141;-85
2022/07/05 00:52:03;;;;;;;3.07;1.30;;;;;;;21.62;52.27;99033.59;6044019;23;20158;-85
2022/07/05 00:54:33;;;;;;;5.80;1.23;;;;;;;21.65;51.60;99027.94;6067872;23;20216;-85
2022/07/05 00:56:59;;;;;;;6.03;1.70;;;;;;;21.76;51.05;99036.56;6044338;23;20255;-85
2022/07/05 00:59:26;;;;;;;6.30;1.77;;;;;;;21.74;51.03;99037.72;6069166;23;20219;-85
2022/07/05 01:01:51;;;;;;;3.07;1.73;;;;;;;21.71;51.25;99032.69;6069379;23;20156;-85
2022/07/05 01:04:16;;;;;;;4.50;1.80;;;;;;;21.64;51.67;99035.13;6069087;23;20145;-85
2022/07/05 01:06:45;;;;;;;9.13;1.90;;;;;;;21.55;52.22;99030.69;6068965;23;20200;-85
2022/07/05 01:09:12;;;;;;;3.90;1.47;;;;;;;21.51;52.35;99031.16;6069259;23;20187;-85
2022/07/05 01:11:45;;;;;;;3.20;1.60;;;;;;;21.40;52.82;99024.22;6068603;23;20165;-85
2022/07/05 01:14:17;;;;;;;1.80;1.10;;;;;;;21.47;52.46;99019.94;6069173;23;20170;-85
2022/07/05 01:16:43;;;;;;;3.80;1.27;;;;;;;21.47;52.34;99022.63;6068794;23;20189;-85
2022/07/05 01:19:11;;;;;;;3.13;1.40;;;;;;;21.42;53.55;99017.75;6069335;23;20153;-85
2022/07/05 01:21:40;;;;;;;4.47;1.67;;;;;;;21.34;53.62;99020.34;6069557;23;20570;-85
2022/07/05 01:24:10;;;;;;;7.60;1.63;;;;;;;21.27;53.26;99019.25;6043785;23;20259;-85
2022/07/05 01:26:37;;;;;;;3.00;1.20;;;;;;;21.32;53.15;99016.97;6067635;23;20171;-85
2022/07/05 01:29:03;;;;;;;3.63;1.43;;;;;;;21.17;53.71;99010.47;6068812;23;20153;-85
2022/07/05 01:31:29;;;;;;;3.00;1.27;;;;;;;21.18;53.72;99016.63;6069112;23;20153;-85
2022/07/05 01:33:54;;;;;;;2.63;1.10;;;;;;;21.10;53.99;99017.41;6068808;23;20208;-85
2022/07/05 01:36:20;;;;;;;3.83;1.13;;;;;;;21.12;53.88;99015.41;6043548;23;20157;-85
2022/07/05 01:38:46;;;;;;;2.93;0.90;;;;;;;21.22;53.29;99024.22;6068708;23;20236;-85
2022/07/05 01:41:11;;;;;;;6.30;1.30;;;;;;;21.31;52.79;99025.13;6068751;23;20177;-85
2022/07/05 01:43:37;;;;;;;2.97;1.23;;;;;;;21.14;53.79;99013.47;6068943;23;20573;-85
2022/07/05 01:46:05;;;;;;;2.70;1.50;;;;;;;21.16;53.58;99032.81;6043522;23;20156;-85
2022/07/05 01:48:34;;;;;;;3.43;1.47;;;;;;;21.12;53.62;99026.06;6067303;23;20161;-85
2022/07/05 01:51:05;;;;;;;2.37;1.00;;;;;;;20.98;54.53;99039.88;6068807;23;20642;-84
2022/07/05 01:53:32;;;;;;;3.03;1.53;;;;;;;21.01;54.47;99036.09;6067304;23;20177;-84
2022/07/05 01:55:59;;;;;;;4.73;1.50;;;;;;;21.00;54.21;99032.56;6068451;23;20180;-85
2022/07/05 01:58:25;;;;;;;3.50;1.37;;;;;;;20.96;54.44;99039.22;6067303;23;20236;-85
2022/07/05 02:00:55;;;;;;;6.60;1.37;;;;;;;20.96;54.35;99041.88;6068529;23;20149;-85
2022/07/05 02:03:20;;;;;;;3.83;1.40;;;;;;;20.98;54.24;99039.88;6069213;23;20232;-85
2022/07/05 02:05:46;;;;;;;4.63;2.50;;;;;;;20.87;55.50;99036.56;6067260;23;20589;-85
2022/07/05 02:08:13;;;;;;;4.13;1.47;;;;;;;20.94;55.04;99033.16;6043447;23;20153;-85
2022/07/05 02:10:40;;;;;;;3.50;1.20;;;;;;;20.80;55.53;99028.34;6068382;23;20168;-85
2022/07/05 02:13:07;;;;;;;2.33;1.20;;;;;;;20.73;55.73;99024.56;6067371;23;20184;-85
2022/07/05 02:15:34;;;;;;;2.57;1.33;;;;;;;20.74;55.71;99031.59;6067349;23;20172;-85
2022/07/05 02:18:01;;;;;;;7.83;1.50;;;;;;;20.74;56.08;99018.25;6068863;23;20153;-85
2022/07/05 02:20:28;;;;;;;3.67;1.37;;;;;;;20.76;56.23;99025.13;6067360;23;20160;-85
2022/07/05 02:22:53;;;;;;;2.50;1.17;;;;;;;20.83;55.95;99026.19;6067312;23;20503;-85
2022/07/05 02:25:19;;;;;;;3.73;1.67;;;;;;;20.73;56.39;99024.56;6068462;23;20574;-85
2022/07/05 02:27:45;;;;;;;4.60;1.53;;;;;;;20.82;56.03;99024.53;6068514;23;20153;-85
2022/07/05 02:30:11;;;;;;;3.20;1.40;;;;;;;20.75;56.02;99023.44;6068851;23;20557;-85
2022/07/05 02:32:36;;;;;;;3.27;0.90;;;;;;;20.66;56.41;99028.81;6068748;23;20159;-85
2022/07/05 02:35:03;;;;;;;3.67;1.60;;;;;;;20.70;56.45;99025.69;6068192;23;20177;-85
2022/07/05 02:37:29;;;;;;;2.20;1.13;;;;;;;20.70;56.78;99035.53;6068657;23;20149;-85
2022/07/05 02:39:55;;;;;;;2.27;1.40;;;;;;;20.63;57.16;99045.09;6044323;23;20168;-85
2022/07/05 02:42:20;;;;;;;2.40;0.90;;;;;;;20.63;56.93;99045.09;6067484;23;20157;-85
2022/07/05 02:44:45;;;;;;;3.60;1.13;;;;;;;20.71;56.26;99047.84;6068621;23;20160;-85
2022/07/05 02:47:11;;;;;;;2.43;1.00;;;;;;;20.74;55.80;99048.41;6068389;23;20150;-85
2022/07/05 02:49:36;;;;;;;4.40;1.80;;;;;;;20.80;55.63;99047.00;6068651;23;20159;-85
2022/07/05 02:52:02;;;;;;;2.43;1.40;;;;;;;20.77;56.02;99047.28;6067069;23;20633;-85
2022/07/05 02:54:28;;;;;;;1.40;0.83;;;;;;;20.62;57.05;99054.88;6068642;23;20267;-85
2022/07/05 02:56:53;;;;;;;4.10;1.10;;;;;;;20.60;56.81;99050.69;6068611;23;20160;-85
2022/07/05 02:59:18;;;;;;;3.27;1.40;;;;;;;20.65;56.66;99053.78;6067380;23;20574;-85
2022/07/05 03:01:44;;;;;;;5.80;1.13;;;;;;;20.62;57.06;99056.75;6070239;23;20220;-85
2022/07/05 03:04:09;;;;;;;2.70;1.13;;;;;;;20.59;57.14;99051.69;6070048;23;20577;-85
2022/07/05 03:06:36;;;;;;;2.00;1.10;;;;;;;20.70;57.24;99067.50;6070724;23;20149;-85
2022/07/05 03:09:01;;;;;;;2.40;1.20;;;;;;;20.64;57.59;99063.59;6070116;23;20160;-85
2022/07/05 03:11:27;;;;;;;2.77;1.17;;;;;;;20.58;57.85;99064.16;6069974;23;20197;-85
2022/07/05 03:13:52;;;;;;;1.97;0.90;;;;;;;20.57;57.75;99061.66;6068665;23;20620;-85
2022/07/05 03:16:18;;;;;;;2.73;1.10;;;;;;;20.58;58.14;99066.00;6070315;23;20154;-85
2022/07/05 03:18:43;;;;;;;3.97;1.63;;;;;;;20.59;57.90;99070.34;6069991;23;20149;-85
2022/07/05 03:21:08;;;;;;;2.23;1.20;;;;;;;20.56;58.16;99066.16;6069946;23;20164;-85
2022/07/05 03:23:34;;;;;;;3.73;1.60;;;;;;;20.53;58.44;99060.25;6045240;23;20156;-84
2022/07/05 03:26:00;;;;;;;2.67;1.63;;;;;;;20.49;58.60;99058.88;6069762;23;20149;-85
2022/07/05 03:28:25;;;;;;;3.73;1.20;;;;;;;20.51;58.56;99057.75;6069864;23;20181;-85
2022/07/05 03:30:50;;;;;;;2.60;1.30;;;;;;;20.52;58.31;99069.25;6069900;23;20210;-85
2022/07/05 03:33:16;;;;;;;2.13;1.10;;;;;;;20.48;58.36;99063.38;6069771;23;20163;-85
2022/07/05 03:35:41;;;;;;;3.07;1.20;;;;;;;20.63;57.67;99061.06;6069913;23;20157;-85
2022/07/05 03:38:07;;;;;;;2.20;1.13;;;;;;;20.64;57.87;99047.63;6068554;23;20597;-85
2022/07/05 03:40:32;;;;;;;2.33;1.40;;;;;;;20.59;57.98;99043.72;6069840;23;20149;-85
2022/07/05 03:42:58;;;;;;;2.70;1.33;;;;;;;20.58;57.89;99050.84;6069879;23;20153;-85
2022/07/05 03:45:23;;;;;;;3.17;1.40;;;;;;;20.65;57.72;99048.47;6069726;23;20173;-85
2022/07/05 03:47:49;;;;;;;3.83;1.60;;;;;;;20.63;58.03;99050.41;6069593;23;20574;-85
2022/07/05 03:50:14;;;;;;;2.73;1.30;;;;;;;20.58;57.74;99042.03;6069668;23;20149;-85
2022/07/05 03:52:40;;;;;;;3.63;1.60;;;;;;;20.56;57.85;99041.34;6068978;23;20157;-85
2022/07/05 03:55:05;;;;;;;3.30;1.33;;;;;;;20.52;57.96;99039.97;6069389;23;20194;-85
2022/07/05 03:57:31;;;;;;;4.03;1.37;;;;;;;20.62;58.11;99043.41;6069496;23;20558;-85
2022/07/05 03:59:56;;;;;;;3.30;1.50;;;;;;;20.64;58.60;99028.13;6044576;23;20489;-85
2022/07/05 04:02:22;;;;;;;3.87;1.40;;;;;;;20.66;58.65;99034.13;6068332;23;20570;-85
2022/07/05 04:04:47;;;;;;;4.37;1.30;;;;;;;20.69;57.75;99039.19;6069565;23;20229;-85
2022/07/05 04:07:13;;;;;;;2.87;1.43;;;;;;;20.67;58.05;99041.16;6069615;23;20220;-85
2022/07/05 04:09:38;;;;;;;3.83;1.37;;;;;;;20.68;58.22;99037.50;6069249;23;20181;-85
2022/07/05 04:12:04;;;;;;;2.40;1.20;;;;;;;20.74;58.64;99039.56;6045321;23;20153;-85
2022/07/05 04:14:30;;;;;;;3.10;1.50;;;;;;;20.85;58.30;99031.41;6069740;23;20215;-85
2022/07/05 04:16:55;;;;;;;5.10;1.40;;;;;;;20.87;59.10;99029.41;6069751;23;20158;-85
2022/07/05 04:19:21;;;;;;;7.13;2.03;;;;;;;20.94;58.72;99029.69;6069359;23;20570;-85
2022/07/05 04:21:46;;;;;;;3.50;1.50;;;;;;;21.01;59.07;99036.94;6069485;23;20157;-85
2022/07/05 04:24:12;;;;;;;2.93;1.33;;;;;;;21.10;59.22;99033.38;6070092;23;20145;-85
2022/07/05 04:26:38;;;;;;;4.23;1.60;;;;;;;21.27;58.82;99021.94;6069927;23;20482;-85
2022/07/05 04:29:03;;;;;;;4.10;1.57;;;;;;;21.50;58.69;99024.97;6069384;23;20176;-85
2022/07/05 04:31:28;;;;;;;5.43;1.17;;;;;;;21.60;58.58;99023.06;6044372;23;20161;-85
2022/07/05 04:33:54;;;;;;;3.13;1.47;;;;;;;21.58;59.56;99021.56;6069241;23;20220;-85
2022/07/05 04:36:19;;;;;;;3.03;1.37;;;;;;;21.59;60.12;99018.75;6044270;23;20311;-85
2022/07/05 04:38:44;;;;;;;3.30;1.67;;;;;;;21.66;60.36;99011.81;6068438;23;20629;-85
2022/07/05 04:41:10;;;;;;;4.50;1.73;;;;;;;21.82;60.42;99017.28;6069791;23;20554;-85
2022/07/05 04:43:35;;;;;;;3.70;1.87;;;;;;;21.93;60.68;99009.03;6068248;23;20239;-85
2022/07/05 04:46:01;;;;;;;11.00;3.40;;;;;;;22.02;60.53;99017.94;6069888;23;20153;-86
2022/07/05 04:48:26;;;;;;;3.33;1.40;;;;;;;22.11;60.76;99013.53;6069872;23;20157;-86
2022/07/05 04:50:52;;;;;;;4.00;1.90;;;;;;;22.26;60.57;99015.47;6069374;23;20149;-86
2022/07/05 04:53:17;;;;;;;3.43;1.73;;;;;;;22.43;60.35;99019.88;6068902;23;20536;-85
2022/07/05 04:55:43;;;;;;;5.53;2.10;;;;;;;22.52;60.36;99024.28;6068515;23;20169;-86
2022/07/05 04:58:08;;;;;;;7.43;2.23;;;;;;;22.63;59.89;99018.72;6068935;23;20573;-86
2022/07/05 05:00:34;;;;;;;4.40;1.67;;;;;;;22.84;59.65;99014.78;6069013;23;20615;-86
2022/07/05 05:03:00;;;;;;;6.60;1.93;;;;;;;23.04;59.46;99026.88;6067871;23;20581;-85
2022/07/05 05:05:25;;;;;;;9.03;2.00;;;;;;;23.12;58.83;99021.56;6067798;23;20164;-86
2022/07/05 05:07:50;;;;;;;6.50;1.50;;;;;;;23.30;58.65;99022.28;6069204;23;20184;-86
2022/07/05 05:10:16;;;;;;;4.83;1.87;;;;;;;23.45;58.00;99025.22;6068859;23;20649;-85
2022/07/05 05:12:41;;;;;;;3.93;2.13;;;;;;;23.55;57.89;99013.34;6068831;23;20581;-86
2022/07/05 05:15:10;;;;;;;6.13;1.27;;;;;;;23.76;56.80;99027.09;6068759;23;20268;-86
2022/07/05 05:17:37;;;;;;;3.10;1.57;;;;;;;23.88;58.35;99029.41;6068836;23;20278;-86
2022/07/05 05:20:06;;;;;;;3.33;1.77;;;;;;;24.25;57.14;99027.94;6069138;23;20149;-86
2022/07/05 05:22:31;;;;;;;5.03;2.00;;;;;;;24.50;56.54;99023.38;6067508;23;20164;-86
2022/07/05 05:24:56;;;;;;;5.20;1.37;;;;;;;24.76;55.49;99025.78;6068983;23;20153;-86
2022/07/05 05:27:22;;;;;;;5.50;2.07;;;;;;;24.92;54.93;99023.91;6068702;23;20205;-86
2022/07/05 05:29:47;;;;;;;2.97;1.50;;;;;;;25.20;53.57;99023.44;6044632;23;20224;-86
2022/07/05 05:32:13;;;;;;;3.33;1.67;;;;;;;25.31;53.40;99026.56;6067546;23;20247;-86
2022/07/05 05:34:38;;;;;;;3.83;1.40;;;;;;;25.58;53.03;99025.25;6068513;23;20609;-86
2022/07/05 05:37:04;;;;;;;2.93;1.40;;;;;;;25.81;52.82;99027.94;6067771;23;20161;-86
2022/07/05 05:39:29;;;;;;;5.70;1.93;;;;;;;26.01;51.61;99021.91;6043505;23;20164;-86
2022/07/05 05:41:55;;;;;;;5.90;1.50;;;;;;;26.15;51.07;99029.16;6043937;23;20551;-86
2022/07/05 05:44:20;;;;;;;2.77;1.30;;;;;;;26.39;49.50;99021.91;6068522;23;20220;-86
2022/07/05 05:46:45;;;;;;;6.30;1.60;;;;;;;26.58;48.60;99029.41;6068559;23;20158;-87
2022/07/05 05:49:11;;;;;;;2.23;1.23;;;;;;;26.65;48.40;99030.38;6067789;23;20184;-87
2022/07/05 05:51:36;;;;;;;3.37;1.30;;;;;;;26.81;47.88;99043.63;6067416;23;20231;-87
2022/07/05 05:54:02;;;;;;;5.03;1.50;;;;;;;27.00;47.35;99048.47;6068205;23;20593;-87
2022/07/05 05:56:27;;;;;;;2.60;1.33;;;;;;;27.10;47.80;99048.16;6067534;23;20276;-87
2022/07/05 05:58:53;;;;;;;5.63;2.30;;;;;;;27.09;47.90;99046.50;6067313;23;20168;-86
2022/07/05 06:01:18;;;;;;;3.28;1.30;;;;;;;27.35;47.63;99046.81;6068425;23;20633;-86
2022/07/05 06:03:43;;;;;;;2.00;1.10;;;;;;;27.58;47.19;99052.06;6067860;23;20653;-86
2022/07/05 06:06:09;;;;;;;4.43;1.40;;;;;;;27.49;46.29;99053.25;6067820;23;20199;-86
2022/07/05 06:08:34;;;;;;;5.00;1.63;;;;;;;27.73;46.15;99047.47;6069689;23;20191;-87
2022/07/05 06:11:03;;;;;;;3.35;1.27;;;;;;;27.98;45.20;99043.38;6068744;23;20521;-86
2022/07/05 06:13:29;;;;;;;3.13;1.38;;;;;;;28.09;44.91;99042.91;6068805;23;20596;-86
2022/07/05 06:15:54;;;;;;;4.95;1.55;;;;;;;28.28;44.35;99044.06;6068515;23;20149;-86
2022/07/05 06:18:20;;;;;;;2.70;1.00;;;;;;;28.45;43.74;99046.28;6043995;23;20239;-87
2022/07/05 06:20:46;;;;;;;4.68;1.20;;;;;;;28.47;42.52;99055.00;6044011;23;20236;-87
2022/07/05 06:23:11;;;;;;;2.67;1.10;;;;;;;28.67;42.58;99054.34;6067684;23;20240;-87
2022/07/05 06:25:37;;;;;;;2.80;1.13;;;;;;;28.86;41.69;99053.63;6068041;23;20159;-86
2022/07/05 06:28:05;;;;;;;1.65;0.60;;;;;;;29.04;40.94;99045.81;6067388;23;20157;-87
2022/07/05 06:30:33;;;;;;;12.05;4.68;;;;;;;29.17;40.99;99038.63;6068518;23;20601;-87
2022/07/05 06:32:59;;;;;;;4.90;1.65;;;;;;;29.25;40.57;99034.94;6067568;23;20604;-87
2022/07/05 06:35:25;;;;;;;3.80;1.15;;;;;;;29.47;40.23;99041.03;6069725;23;20184;-87
2022/07/05 06:37:57;;;;;;;3.20;1.15;;;;;;;29.68;40.05;99041.72;6071065;23;20163;-87
2022/07/05 06:40:34;;;;;;;2.80;1.42;;;;;;;29.96;39.00;99038.88;6070877;23;20153;-87
2022/07/05 06:43:02;;;;;;;2.22;0.93;;;;;;;30.30;37.98;99045.97;6046427;23;20156;-86
2022/07/05 06:45:28;;;;;;;2.38;0.90;;;;;;;30.49;37.43;99036.19;6046571;23;20460;-87
2022/07/05 06:47:55;;;;;;;2.50;0.95;;;;;;;30.72;37.60;99034.69;6070670;23;20149;-87
2022/07/05 06:50:20;;;;;;;1.85;0.90;;;;;;;30.93;36.83;99045.28;6069353;23;20694;-86
2022/07/05 06:52:45;;;;;;;2.05;1.00;;;;;;;30.95;36.59;99039.66;6045503;23;20231;-87
2022/07/05 06:55:11;;;;;;;10.18;1.15;;;;;;;30.99;36.54;99030.06;6045168;23;20255;-87
2022/07/05 06:57:36;;;;;;;4.25;0.93;;;;;;;31.08;35.49;99030.69;6045287;23;20266;-87
2022/07/05 07:00:03;;;;;;;2.80;1.10;;;;;;;30.99;36.96;99025.50;6069383;23;20252;-87
2022/07/05 07:02:28;;;;;;;4.43;1.08;;;;;;;31.23;37.23;99029.38;6069218;23;20157;-87
2022/07/05 07:04:54;;;;;;;3.47;0.80;;;;;;;31.50;35.17;99019.22;6069063;23;20160;-87
2022/07/05 07:10:03;;;;;;;1.83;0.80;;;;;;;31.61;36.19;99021.25;6070664;23;20199;-87
2022/07/05 07:12:29;;;;;;;4.05;1.30;;;;;;;31.91;35.58;99022.31;6069412;23;20153;-87
2022/07/05 07:14:56;;;;;;;2.83;1.23;;;;;;;32.26;34.81;99024.56;6069138;23;20188;-87
2022/07/05 07:17:23;;;;;;;3.22;1.20;;;;;;;32.43;34.63;99015.63;6068877;23;20240;-87
2022/07/05 07:19:48;;;;;;;2.75;1.65;;;;;;;32.48;33.07;99025.81;6070055;23;20153;-88
2022/07/05 07:22:14;;;;;;;3.67;1.48;;;;;;;32.35;34.31;99028.66;6070756;23;20244;-87
2022/07/05 07:24:39;;;;;;;1.92;0.82;;;;;;;32.59;33.59;99022.41;6068690;23;20594;-87
2022/07/05 07:27:06;;;;;;;3.33;1.38;;;;;;;32.77;33.44;99031.41;6070188;23;20506;-87
2022/07/05 07:29:36;;;;;;;2.15;1.23;;;;;;;32.88;33.40;99020.84;6069105;23;20240;-88
2022/07/05 07:32:02;;;;;;;2.50;1.00;;;;;;;33.00;32.60;99016.28;6068564;23;20177;-87
2022/07/05 07:34:28;;;;;;;2.33;1.20;;;;;;;33.09;33.26;99021.25;6069950;23;20188;-87
2022/07/05 07:36:55;;;;;;;4.40;1.20;;;;;;;33.24;33.08;99015.41;6068688;23;20467;-88
2022/07/05 07:39:21;;;;;;;1.85;1.00;;;;;;;33.35;31.71;99020.91;6068663;23;20204;-88
2022/07/05 07:41:47;;;;;;;3.47;0.98;;;;;;;33.48;32.34;99019.06;6070068;23;20160;-88
2022/07/05 07:44:12;;;;;;;3.40;1.52;;;;;;;33.55;32.35;99022.50;6068580;23;20157;-88
2022/07/05 07:46:41;;;;;;;1.67;0.85;;;;;;;33.76;31.71;99019.28;6068793;23;20164;-87
2022/07/05 07:49:08;;;;;;;4.50;1.20;;;;;;;33.77;32.19;99015.53;6068517;23;20185;-87
2022/07/05 07:51:34;;;;;;;3.08;1.13;;;;;;;33.87;31.96;99010.34;6070038;23;20656;-88
2022/07/05 07:53:59;;;;;;;4.30;1.30;;;;;;;33.85;31.65;99009.75;6070358;23;20215;-88
2022/07/05 07:56:25;;;;;;;1.27;0.70;;;;;;;33.81;31.36;99003.09;6068511;23;20169;-88
2022/07/05 07:58:51;;;;;;;2.10;0.95;;;;;;;34.00;30.58;99007.41;6068718;23;20161;-88
2022/07/05 08:01:16;;;;;;;3.65;1.10;;;;;;;34.08;30.44;99000.81;6070351;23;20157;-88
2022/07/05 08:03:42;;;;;;;1.95;0.90;;;;;;;34.14;30.32;99000.72;6068604;23;20154;-88
2022/07/05 08:06:10;;;;;;;2.72;0.98;;;;;;;34.16;30.99;98995.88;6068725;23;20160;-88
2022/07/05 08:08:37;;;;;;;2.13;0.90;;;;;;;34.11;30.11;99001.19;6068630;23;20612;-89
2022/07/05 08:11:02;;;;;;;1.60;0.90;;;;;;;34.11;29.60;98998.47;6044260;23;20173;-89
2022/07/05 08:13:29;;;;;;;3.58;0.98;;;;;;;34.32;30.22;99005.22;6068336;23;20248;-89
2022/07/05 08:15:54;;;;;;;4.60;1.10;;;;;;;34.32;29.61;99006.06;6068149;23;20188;-88
2022/07/05 08:23:47;;;;;;;1.38;0.68;;;;;;;34.68;27.17;99006.91;6069673;23;20151;-89
2022/07/05 08:26:13;;;;;;;1.58;0.88;;;;;;;34.65;28.77;99010.09;6069240;23;20228;-88
2022/07/05 08:28:38;;;;;;;2.13;1.02;;;;;;;34.85;27.83;99007.84;6069225;23;20216;-87
2022/07/05 08:31:03;;;;;;;9.25;1.40;;;;;;;35.15;27.17;98998.41;6069575;23;20477;-88
2022/07/05 08:33:29;;;;;;;1.73;0.88;;;;;;;35.21;27.36;98999.34;6069419;23;20153;-88
2022/07/05 08:35:54;;;;;;;1.83;0.90;;;;;;;35.34;27.70;98988.16;6068094;23;20160;-89
2022/07/05 08:38:20;;;;;;;1.42;0.70;;;;;;;35.62;26.59;98993.63;6069097;23;20149;-88
2022/07/05 08:40:50;;;;;;;1.40;0.60;;;;;;;35.54;25.58;99004.91;6069500;23;20153;-89
2022/07/05 08:43:17;;;;;;;1.40;0.73;;;;;;;35.40;25.90;99000.81;6069168;23;20153;-89
2022/07/05 08:45:43;;;;;;;6.78;1.25;;;;;;;35.33;26.55;98994.66;6069064;23;20157;-89
2022/07/05 08:48:10;;;;;;;2.72;0.60;;;;;;;35.48;27.04;98996.88;6069743;23;20573;-89
2022/07/05 08:50:39;;;;;;;2.58;0.80;;;;;;;35.52;26.55;99000.75;6043935;23;20161;-88
2022/07/05 08:53:05;;;;;;;1.95;0.70;;;;;;;35.52;26.13;98998.88;6069023;23;20149;-89
2022/07/05 08:55:32;;;;;;;4.20;0.80;;;;;;;35.54;26.78;98994.00;6069258;23;20212;-88
2022/07/05 08:58:00;;;;;;;1.55;0.52;;;;;;;35.89;26.22;98996.56;6068291;23;20268;-89
2022/07/05 09:00:25;;;;;;;2.45;1.08;;;;;;;35.57;24.69;99004.44;6068903;23;20192;-89
2022/07/05 09:02:52;;;;;;;3.47;1.15;;;;;;;35.76;27.48;99000.44;6068882;23;20161;-89
2022/07/05 09:05:20;;;;;;;1.70;0.80;;;;;;;35.89;25.72;98991.09;6069188;23;20160;-89
2022/07/05 09:07:57;;;;;;;1.85;0.80;;;;;;;36.05;25.15;98990.31;6069089;23;20153;-90
2022/07/05 09:10:25;;;;;;;3.53;0.60;;;;;;;35.84;25.98;98991.00;6068410;23;20203;-90
2022/07/05 09:12:51;;;;;;;2.55;1.05;;;;;;;35.80;26.26;98991.75;6068136;23;20474;-87
2022/07/05 09:15:17;;;;;;;1.63;0.90;;;;;;;36.10;24.88;98992.28;6067465;23;20177;-89
2022/07/05 09:17:45;;;;;;;1.92;0.93;;;;;;;36.46;25.43;98989.03;6068166;23;20153;-89
2022/07/05 09:20:16;;;;;;;1.17;0.60;;;;;;;36.52;25.43;98990.78;6066445;23;20153;-89
2022/07/05 09:22:53;;;;;;;1.85;0.80;;;;;;;36.45;25.32;98987.38;6067889;23;20153;-88
2022/07/05 09:25:30;;;;;;;6.50;0.75;;;;;;;36.40;24.61;98992.75;6067795;23;20284;-89
2022/07/05 09:27:57;;;;;;;1.73;0.65;;;;;;;36.20;24.01;98986.97;6067768;23;20152;-89
2022/07/05 09:30:33;;;;;;;2.85;0.80;;;;;;;36.48;25.06;98989.63;6066360;23;20484;-88
2022/07/05 09:33:15;;;;;;;3.33;0.85;;;;;;;36.93;23.70;98986.69;6066314;23;20165;-89
2022/07/05 09:35:58;;;;;;;1.15;0.65;;;;;;;37.02;24.05;98976.16;6067569;23;20581;-90
2022/07/05 09:38:25;;;;;;;2.25;0.60;;;;;;;36.75;23.33;98974.16;6067438;23;20200;-89
2022/07/05 09:40:58;;;;;;;2.95;0.98;;;;;;;36.81;23.43;98969.59;6067681;23;20176;-90
2022/07/05 09:43:25;;;;;;;3.00;1.10;;;;;;;36.75;23.50;98963.25;6068149;23;20164;-90
2022/07/05 09:46:02;;;;;;;3.92;1.08;;;;;;;36.93;23.65;98960.19;6067328;23;20152;-90
2022/07/05 09:48:29;;;;;;;3.35;1.08;;;;;;;37.29;24.39;98958.72;6067328;23;20575;-88
2022/07/05 09:51:12;;;;;;;2.70;1.00;;;;;;;37.62;24.30;98945.94;6067319;23;20161;-89
2022/07/05 09:53:47;;;;;;;1.02;0.52;;;;;;;37.01;23.84;98944.44;6067939;23;20153;-90
2022/07/05 09:56:13;;;;;;;2.63;0.60;;;;;;;36.96;22.09;98947.94;6066306;23;20156;-89
2022/07/05 09:58:39;;;;;;;1.17;0.60;;;;;;;36.99;24.14;98952.09;6067682;23;20159;-93
2022/07/05 10:01:26;;;;;;;1.92;0.63;;;;;;;37.16;23.67;98933.72;6066081;23;20157;-90
2022/07/05 10:03:54;;;;;;;2.55;1.00;;;;;;;37.40;23.86;98937.75;6067701;23;20164;-91
2022/07/05 10:06:22;;;;;;;2.17;0.90;;;;;;;37.72;23.90;98935.91;6067635;23;20231;-89
2022/07/05 10:08:48;;;;;;;1.35;0.80;;;;;;;37.90;23.53;98934.72;6066868;23;20149;-89
2022/07/05 10:11:15;;;;;;;6.57;1.20;;;;;;;37.83;23.06;98931.34;6019029;23;1168256;-89
2022/07/05 10:13:41;;;;;;;3.03;0.80;;;;;;;38.02;23.18;98928.00;6068231;23;20165;-89
2022/07/05 10:16:07;;;;;;;2.80;0.80;;;;;;;38.16;22.91;98924.81;6068286;23;20173;-89
2022/07/05 10:18:34;;;;;;;2.58;0.82;;;;;;;38.25;21.97;98923.19;6068667;23;20148;-90
2022/07/05 10:21:02;;;;;;;3.85;1.23;;;;;;;38.30;23.19;98923.22;6043179;23;20172;-89
2022/07/05 10:23:28;;;;;;;1.55;0.80;;;;;;;38.07;22.90;98917.06;6043386;23;20550;-88
2022/07/05 10:25:56;;;;;;;2.83;0.88;;;;;;;38.18;23.72;98919.88;6044347;23;20171;-89
2022/07/05 10:28:22;;;;;;;1.40;0.70;;;;;;;37.93;23.40;98915.88;6068278;23;20172;-89
2022/07/05 10:30:52;;;;;;;2.42;1.02;;;;;;;37.91;22.89;98911.75;6068263;23;20153;-88
2022/07/05 10:33:26;;;;;;;2.88;1.35;;;;;;;38.40;22.12;98917.84;6068982;23;20145;-88
2022/07/05 10:35:53;;;;;;;3.15;0.85;;;;;;;38.41;22.42;98911.28;6068968;23;20152;-89
2022/07/05 10:38:19;;;;;;;1.98;0.80;;;;;;;38.52;21.72;98908.34;6068497;23;20571;-90
2022/07/05 10:40:53;;;;;;;2.17;1.00;;;;;;;38.50;21.41;98910.50;6068564;23;20244;-89
2022/07/05 10:43:22;;;;;;;2.95;1.17;;;;;;;38.53;22.78;98903.66;6068873;23;20564;-90
2022/07/05 10:45:49;;;;;;;2.08;1.05;;;;;;;38.50;21.23;98906.94;6068172;23;20150;-90
2022/07/05 10:48:20;;;;;;;4.35;1.00;;;;;;;38.46;22.27;98894.88;6068471;23;20156;-88
2022/07/05 10:50:50;;;;;;;2.15;0.90;;;;;;;38.72;21.77;98902.09;6043085;23;20550;-88
2022/07/05 10:53:37;;;;;;;3.88;1.05;;;;;;;39.07;21.57;98899.53;6068163;23;20137;-88
2022/07/05 10:56:02;;;;;;;3.80;1.05;;;;;;;39.22;21.70;98899.56;6068092;23;20239;-88
2022/07/05 10:58:31;;;;;;;3.05;0.98;;;;;;;39.02;21.21;98902.22;6068787;23;20173;-89
2022/07/05 11:01:11;;;;;;;2.88;1.00;;;;;;;39.05;21.70;98901.69;6067963;23;20251;-88
2022/07/05 11:03:42;;;;;;;2.13;0.93;;;;;;;39.04;20.90;98897.31;6068759;23;20157;-89
2022/07/05 11:06:08;;;;;;;1.65;0.77;;;;;;;38.84;21.33;98894.50;6067017;23;20574;-90
2022/07/05 11:11:28;;;;;;;2.60;1.20;;;;;;;38.59;21.69;98894.38;6067921;23;20201;-89
2022/07/05 11:13:55;;;;;;;2.13;0.80;;;;;;;38.79;21.79;98886.25;6067944;23;20185;-88
2022/07/05 11:16:35;;;;;;;4.35;1.48;;;;;;;38.88;22.51;98884.66;6067181;23;20249;-88
2022/07/05 11:19:07;;;;;;;2.13;0.90;;;;;;;39.13;21.96;98881.13;6067457;23;20161;-89
2022/07/05 11:21:34;;;;;;;1.20;0.80;;;;;;;39.19;21.38;98867.22;6069192;23;20562;-89
2022/07/05 11:24:25;;;;;;;1.95;1.30;;;;;;;39.33;21.17;98875.72;6070173;23;20169;-88
2022/07/05 11:26:52;;;;;;;2.15;0.73;;;;;;;39.54;20.26;98873.81;6069813;23;20183;-89
2022/07/05 11:29:41;;;;;;;3.97;1.70;;;;;;;39.70;20.27;98870.00;6070451;23;20431;-88
2022/07/05 11:32:08;;;;;;;2.95;1.35;;;;;;;39.64;20.38;98868.34;6069737;23;20157;-89
2022/07/05 11:34:37;;;;;;;2.70;1.23;;;;;;;39.56;20.25;98874.34;6069635;23;20177;-89
2022/07/05 11:37:24;;;;;;;2.60;1.30;;;;;;;39.45;20.95;98869.97;6068540;23;20176;-89
2022/07/05 11:40:10;;;;;;;1.13;0.60;;;;;;;39.72;19.21;98867.78;6070003;23;20163;-89
2022/07/05 11:42:49;;;;;;;1.85;0.90;;;;;;;39.77;20.14;98856.81;6070073;23;20149;-87
2022/07/05 11:45:15;;;;;;;1.63;0.90;;;;;;;39.57;20.15;98859.56;6068490;23;20456;-89